Dobrodošli na spletni strani vremenske postaje Senovo. Vse informacije so informativnega značaja, saj vremenska postaja ni del državne mreže meteoroloških postaj. AKTUALNIH OBVESTIL NI.


Sneg/Led Od: 23-02-2018 00:00 Do: 23:59 Opozorilo za: Sneg/Led Stopnja: Rumena info button

Pogled proti Armezu več informacij Pogled proti Armezu


Lisca več informacij Lisca


Radar strel več informacij blitzortung!


opozorilo za sneg/led več informacij rain snow radar


Obiščite še:

Template documentation
and downloads

And another site



Weather Underground, zgodovina - Tekstovno

Dnevni povzetek za Januar 21, 2018 Enote:  Angleško    Metrično   Obe
« Predhodni Dan
Naslednji Dan »
Dnevni Tedenski Mesečni Letni Po meri
  Višja: Nižja: Povprečje:
Temperatura: TemperatureC °F -0.7 °F 2.3 °F
Točka rosišča: DewpointC °F -4.0 °F 0.2 °F
Vlažnost: Humidity % 57 % 87 %
Hitrost vetra: WindSpeedKMH mph 0.0 mph 2.2 mph
Sunki vetra: WindSpeedGustKMH mph - -
Veter:- - South
Zračni tlak: PressurehPa in 997.9 in -
Padavine: 0.0 in    
Historical Graphs
 
 
Tabelarni podarki za Januar 21, 2018
Čas Temperatura Točka rosišča Zračni tlak Veter Hitrost vetra Sunki vetra Vlažnost Intenziteta padavin (urna)
TemperatureC °F DewpointC °F PressurehPa in Calm     Humidity % HourlyPrecipMM in
00:01 0.8 °F 0.2 °F 1002.9 in SW 0.8 mph 4.3 mph 96 % 0.0 in
00:06 0.8 °F 0.2 °F 1002.9 in SSW 1.9 mph 5.0 mph 96 % 0.0 in
00:11 0.8 °F 0.2 °F 1002.9 in South 1.6 mph 5.0 mph 96 % 0.0 in
00:16 0.8 °F 0.2 °F 1002.9 in South 0.5 mph 3.2 mph 96 % 0.0 in
00:21 0.8 °F 0.2 °F 1002.9 in Calm     96 % 0.0 in
00:26 0.8 °F 0.2 °F 1002.9 in SW 1.0 mph 4.7 mph 96 % 0.0 in
00:31 0.8 °F 0.2 °F 1002.9 in SSW 2.9 mph 6.9 mph 96 % 0.0 in
00:36 0.7 °F 0.1 °F 1002.9 in South 4.3 mph 8.7 mph 96 % 0.0 in
00:41 0.7 °F 0.1 °F 1001.9 in South 5.3 mph 8.7 mph 96 % 0.0 in
00:46 0.7 °F 0.1 °F 1001.9 in SSE 4.7 mph 7.6 mph 96 % 0.0 in
00:51 0.7 °F 0.1 °F 1001.9 in SE 2.6 mph 5.8 mph 96 % 0.0 in
00:56 0.6 °F 0.1 °F 1000.9 in South 0.6 mph 4.3 mph 96 % 0.0 in
01:01 0.6 °F 0.1 °F 1000.9 in ESE 0.2 mph 3.5 mph 96 % 0.0 in
01:06 0.6 °F 0.1 °F 1000.9 in SE 1.3 mph 4.0 mph 96 % 0.0 in
01:11 0.6 °F 0.1 °F 1000.9 in SE 1.8 mph 6.1 mph 96 % 0.0 in
01:16 0.6 °F 0.1 °F 1000.9 in ESE 1.6 mph 6.1 mph 96 % 0.0 in
01:21 0.6 °F 0.1 °F 1000.9 in ESE 1.1 mph 5.0 mph 96 % 0.0 in
01:26 0.6 °F 0.1 °F 999.9 in ESE 0.6 mph 4.3 mph 96 % 0.0 in
01:31 0.6 °F 0.1 °F 999.9 in ESE 0.5 mph 4.3 mph 96 % 0.0 in
01:36 0.6 °F 0.1 °F 999.9 in SSE 1.0 mph 4.0 mph 96 % 0.0 in
01:41 0.6 °F 0.1 °F 999.9 in South 2.1 mph 5.8 mph 96 % 0.0 in
01:46 0.6 °F 0.1 °F 999.9 in South 2.7 mph 6.9 mph 96 % 0.0 in
01:51 0.6 °F 0.1 °F 999.9 in SSW 2.1 mph 6.9 mph 96 % 0.0 in
01:56 0.6 °F 0.1 °F 999.9 in SW 2.6 mph 5.8 mph 96 % 0.0 in
02:01 0.6 °F 0.1 °F 999.9 in SW 3.1 mph 5.8 mph 96 % 0.0 in
02:06 0.6 °F 0.1 °F 999.9 in WSW 3.2 mph 5.8 mph 96 % 0.0 in
02:11 0.6 °F 0.1 °F 999.9 in WSW 3.9 mph 5.8 mph 96 % 0.0 in
02:16 0.6 °F 0.1 °F 999.9 in West 2.4 mph 4.0 mph 96 % 0.0 in
02:21 0.6 °F 0.1 °F 999.9 in NNW 1.0 mph 3.5 mph 96 % 0.0 in
02:26 0.6 °F 0.1 °F 1000.9 in SSE 1.8 mph 5.8 mph 96 % 0.0 in
02:31 0.6 °F 0.1 °F 1000.9 in SSE 1.6 mph 5.8 mph 96 % 0.0 in
02:36 0.6 °F 0.1 °F 1000.9 in North 0.2 mph   96 % 0.0 in
02:41 0.6 °F 0.1 °F 999.9 in Calm     96 % 0.0 in
02:46 0.6 °F 0.1 °F 999.9 in Calm     96 % 0.0 in
02:51 0.6 °F 0.1 °F 999.9 in SSE 0.2 mph 3.5 mph 96 % 0.0 in
02:56 0.6 °F 0.1 °F 999.9 in SSE 0.8 mph 3.5 mph 96 % 0.0 in
03:01 0.7 °F 0.1 °F 999.9 in SSE 0.6 mph 3.5 mph 96 % 0.0 in
03:06 0.7 °F 0.1 °F 999.9 in Calm     96 % 0.0 in
03:11 0.7 °F 0.1 °F 998.9 in Calm     96 % 0.0 in
03:16 0.7 °F 0.1 °F 998.9 in Calm     96 % 0.0 in
03:21 0.7 °F 0.1 °F 998.9 in Calm     96 % 0.0 in
03:27 0.7 °F 0.1 °F 998.9 in Calm     96 % 0.0 in
03:32 0.7 °F 0.1 °F 998.9 in Calm     96 % 0.0 in
03:36 0.7 °F 0.1 °F 998.9 in Calm     96 % 0.0 in
03:42 0.7 °F 0.1 °F 997.9 in Calm     96 % 0.0 in
03:47 0.7 °F 0.1 °F 997.9 in Calm     96 % 0.0 in
03:52 0.7 °F 0.1 °F 997.9 in SSW 0.5 mph 4.0 mph 96 % 0.0 in
03:56 0.8 °F 0.2 °F 998.9 in South 1.1 mph 5.0 mph 96 % 0.0 in
04:01 0.7 °F 0.1 °F 998.9 in SSW 1.0 mph 5.0 mph 96 % 0.0 in
04:07 0.8 °F 0.2 °F 998.9 in South 0.5 mph 3.2 mph 96 % 0.0 in
04:12 0.8 °F 0.2 °F 997.9 in SSE 0.8 mph 5.0 mph 96 % 0.0 in
04:17 0.8 °F 0.4 °F 997.9 in SSE 2.4 mph 5.8 mph 97 % 0.0 in
04:22 0.8 °F 0.4 °F 997.9 in South 3.4 mph 5.8 mph 97 % 0.0 in
04:27 0.7 °F 0.3 °F 998.9 in South 1.9 mph 5.0 mph 97 % 0.0 in
04:32 0.7 °F 0.3 °F 998.9 in SSE 0.3 mph 3.5 mph 97 % 0.0 in
04:37 0.7 °F 0.3 °F 998.9 in South 0.5 mph 5.8 mph 97 % 0.0 in
04:42 0.7 °F 0.3 °F 999.9 in South 1.9 mph 5.8 mph 97 % 0.0 in
04:47 0.7 °F 0.3 °F 999.9 in South 2.3 mph 4.7 mph 97 % 0.0 in
04:52 0.7 °F 0.3 °F 999.9 in South 2.3 mph 5.5 mph 97 % 0.0 in
04:57 0.7 °F 0.3 °F 997.9 in South 1.9 mph 5.5 mph 97 % 0.0 in
05:02 0.7 °F 0.3 °F 997.9 in SSE 0.5 mph 4.0 mph 97 % 0.0 in
05:07 0.7 °F 0.3 °F 997.9 in Calm     97 % 0.0 in
05:12 0.7 °F 0.3 °F 998.9 in Calm     97 % 0.0 in
05:17 0.7 °F 0.3 °F 998.9 in Calm     97 % 0.0 in
05:22 0.7 °F 0.3 °F 998.9 in Calm     97 % 0.0 in
05:27 0.7 °F 0.3 °F 998.9 in SW 1.1 mph 4.7 mph 97 % 0.0 in
05:32 0.7 °F 0.3 °F 998.9 in SW 1.9 mph 4.7 mph 97 % 0.0 in
05:37 0.7 °F 0.3 °F 998.9 in SW 0.8 mph 4.0 mph 97 % 0.0 in
05:42 0.8 °F 0.4 °F 997.9 in Calm   2.1 mph 97 % 0.0 in
05:47 0.7 °F 0.3 °F 997.9 in Calm     97 % 0.0 in
05:52 0.8 °F 0.4 °F 997.9 in Calm     97 % 0.0 in
05:57 0.8 °F 0.4 °F 997.9 in SSE 0.6 mph 4.0 mph 97 % 0.0 in
06:02 0.8 °F 0.4 °F 997.9 in South 0.8 mph 4.0 mph 97 % 0.0 in
06:07 0.8 °F 0.4 °F 997.9 in South 0.2 mph 3.5 mph 97 % 0.0 in
06:12 0.8 °F 0.4 °F 997.9 in Calm     97 % 0.0 in
06:17 0.8 °F 0.4 °F 997.9 in SW 0.3 mph 2.6 mph 97 % 0.0 in
06:22 0.7 °F 0.3 °F 997.9 in SW 0.8 mph 3.2 mph 97 % 0.0 in
06:27 0.7 °F 0.3 °F 998.9 in SW 0.6 mph 3.2 mph 97 % 0.0 in
06:32 0.7 °F 0.3 °F 998.9 in North 0.2 mph   97 % 0.0 in
06:37 0.7 °F 0.3 °F 998.9 in Calm     97 % 0.0 in
06:42 0.7 °F 0.3 °F 998.9 in Calm     97 % 0.0 in
06:47 0.7 °F 0.3 °F 998.9 in Calm     97 % 0.0 in
06:52 0.8 °F 0.4 °F 998.9 in Calm     97 % 0.0 in
06:57 0.8 °F 0.4 °F 998.9 in Calm   1.4 mph 97 % 0.0 in
07:02 0.8 °F 0.4 °F 998.9 in Calm   1.4 mph 97 % 0.0 in
07:07 0.9 °F 0.5 °F 998.9 in Calm     97 % 0.0 in
07:12 0.9 °F 0.5 °F 999.9 in ESE 0.6 mph 4.3 mph 97 % 0.0 in
07:23 0.9 °F 0.5 °F 999.9 in ESE 0.2 mph 1.4 mph 97 % 0.0 in
07:28 0.9 °F 0.5 °F 999.9 in Calm     97 % 0.0 in
07:33 0.9 °F 0.5 °F 999.9 in Calm     97 % 0.0 in
07:38 0.9 °F 0.5 °F 999.9 in Calm   4.0 mph 97 % 0.0 in
07:43 0.9 °F 0.5 °F 999.9 in NE 0.8 mph 5.0 mph 97 % 0.0 in
07:48 0.9 °F 0.5 °F 999.9 in NE 1.0 mph 5.0 mph 97 % 0.0 in
07:53 0.9 °F 0.5 °F 999.9 in NNE 0.2 mph 1.8 mph 97 % 0.0 in
07:58 0.9 °F 0.5 °F 999.9 in Calm   1.8 mph 97 % 0.0 in
08:03 0.8 °F 0.4 °F 999.9 in North 0.3 mph 4.3 mph 97 % 0.0 in
08:08 0.8 °F 0.4 °F 999.9 in NNW 1.0 mph 4.7 mph 97 % 0.0 in
08:13 0.7 °F 0.3 °F 1000.9 in NNE 1.9 mph 5.5 mph 97 % 0.0 in
08:18 0.7 °F 0.3 °F 1000.9 in NE 1.6 mph 5.5 mph 97 % 0.0 in
08:23 0.7 °F 0.3 °F 1000.9 in NNE 0.5 mph 4.3 mph 97 % 0.0 in
08:28 0.7 °F 0.3 °F 1000.9 in NE 1.0 mph 4.3 mph 97 % 0.0 in
08:33 0.7 °F 0.3 °F 1000.9 in NE 1.0 mph 3.2 mph 97 % 0.0 in
08:38 0.7 °F 0.3 °F 1000.9 in ENE 1.1 mph 4.0 mph 97 % 0.0 in
08:43 0.7 °F 0.3 °F 999.9 in ENE 1.1 mph 4.0 mph 97 % 0.0 in
08:48 0.7 °F 0.3 °F 999.9 in North 0.2 mph 2.1 mph 97 % 0.0 in
08:53 0.8 °F 0.4 °F 999.9 in Calm   1.8 mph 97 % 0.0 in
08:58 0.8 °F 0.4 °F 999.9 in Calm   1.8 mph 97 % 0.0 in
09:03 0.8 °F 0.4 °F 999.9 in Calm     97 % 0.0 in
09:08 0.9 °F 0.5 °F 999.9 in South 0.6 mph 4.0 mph 97 % 0.0 in
09:13 0.9 °F 0.5 °F 1000.9 in South 0.5 mph 4.0 mph 97 % 0.0 in
09:18 1.0 °F 0.6 °F 1000.9 in Calm     97 % 0.0 in
09:23 1.1 °F 0.7 °F 1000.9 in Calm     97 % 0.0 in
09:28 1.2 °F 0.8 °F 1000.9 in Calm   2.1 mph 97 % 0.0 in
09:33 1.3 °F 0.9 °F 1000.9 in SSW 1.3 mph 5.8 mph 97 % 0.0 in
09:38 1.4 °F 1.0 °F 1000.9 in SSW 3.2 mph 5.8 mph 97 % 0.0 in
09:43 1.5 °F 1.1 °F 1000.9 in SSW 3.2 mph 5.8 mph 97 % 0.0 in
09:48 1.5 °F 1.1 °F 1000.9 in South 1.3 mph 5.0 mph 97 % 0.0 in
09:53 1.6 °F 1.2 °F 1000.9 in SE 0.8 mph 4.7 mph 97 % 0.0 in
09:58 1.6 °F 1.2 °F 1000.9 in SSW 1.3 mph 4.7 mph 97 % 0.0 in
10:03 1.6 °F 1.2 °F 1000.9 in WSW 2.7 mph 6.4 mph 97 % 0.0 in
10:08 1.6 °F 1.2 °F 1000.9 in WSW 4.0 mph 6.4 mph 97 % 0.0 in
10:13 1.8 °F 1.4 °F 1002.9 in SW 3.2 mph 6.4 mph 97 % 0.0 in
10:18 1.9 °F 1.5 °F 1002.9 in SSW 3.2 mph 5.8 mph 97 % 0.3 in
10:23 2.0 °F 1.6 °F 1002.9 in SSW 3.4 mph 5.0 mph 97 % 0.3 in
10:28 2.1 °F 1.7 °F 1002.9 in SSW 2.7 mph 4.7 mph 97 % 0.3 in
10:33 2.2 °F 1.8 °F 1002.9 in SSW 2.4 mph 5.5 mph 97 % 0.3 in
10:38 2.3 °F 1.9 °F 1002.9 in SSW 3.2 mph 6.4 mph 97 % 0.3 in
10:43 2.4 °F 2.0 °F 1002.9 in SSW 3.5 mph 6.4 mph 97 % 0.3 in
10:48 2.5 °F 2.1 °F 1002.9 in SSW 3.1 mph 5.8 mph 97 % 0.3 in
10:53 2.7 °F 2.3 °F 1002.9 in SW 1.9 mph 5.0 mph 97 % 0.3 in
10:58 2.7 °F 2.3 °F 1001.9 in SSW 0.6 mph 4.0 mph 97 % 0.3 in
11:03 2.8 °F 2.5 °F 1001.9 in SSE 0.2 mph 3.2 mph 98 % 0.3 in
11:08 3.0 °F 2.6 °F 1001.9 in SSE 1.0 mph 5.8 mph 97 % 0.3 in
11:13 3.2 °F 2.8 °F 1001.9 in SSE 2.1 mph 5.8 mph 97 % 0.3 in
11:18 3.3 °F 2.9 °F 1001.9 in SE 2.4 mph 5.5 mph 97 % 0.0 in
11:23 3.4 °F 2.9 °F 1001.9 in SE 2.9 mph 5.5 mph 97 % 0.0 in
11:28 3.6 °F 3.2 °F 1002.9 in SE 2.9 mph 6.1 mph 97 % 0.0 in
11:33 3.6 °F 3.2 °F 1002.9 in ESE 4.0 mph 6.4 mph 97 % 0.0 in
11:38 3.6 °F 3.2 °F 1002.9 in ESE 4.3 mph 6.4 mph 97 % 0.0 in
11:43 3.7 °F 3.3 °F 1002.9 in ESE 3.9 mph 6.1 mph 97 % 0.0 in
11:48 3.9 °F 3.4 °F 1002.9 in ESE 3.2 mph 6.1 mph 97 % 0.0 in
11:53 4.2 °F 3.8 °F 1002.9 in ESE 3.1 mph 5.0 mph 97 % 0.0 in
11:58 4.5 °F 4.1 °F 1002.9 in ESE 3.5 mph 6.1 mph 97 % 0.0 in
12:03 4.9 °F 4.4 °F 1002.9 in SE 4.7 mph 6.9 mph 97 % 0.0 in
12:08 5.1 °F 4.7 °F 1002.9 in SE 4.7 mph 6.9 mph 97 % 0.0 in
12:13 5.3 °F 4.9 °F 1002.9 in SE 3.2 mph 6.9 mph 97 % 0.0 in
12:18 5.7 °F 5.3 °F 1002.9 in SSE 2.4 mph 6.1 mph 97 % 0.0 in
12:23 6.0 °F 5.6 °F 1002.9 in South 1.3 mph 4.7 mph 97 % 0.0 in
12:28 6.2 °F 5.8 °F 1001.9 in North 0.2 mph   97 % 0.0 in
12:33 6.6 °F 6.2 °F 1001.9 in SSW 0.3 mph 4.0 mph 97 % 0.0 in
12:38 6.9 °F 6.4 °F 1001.9 in South 0.3 mph 4.0 mph 97 % 0.0 in
12:43 7.0 °F 6.6 °F 1002.9 in ESE 1.0 mph 4.7 mph 97 % 0.0 in
12:48 7.3 °F 6.8 °F 1002.9 in SE 1.0 mph 4.7 mph 97 % 0.0 in
12:53 7.6 °F 7.2 °F 1002.9 in South 1.0 mph 4.3 mph 97 % 0.0 in
12:58 7.9 °F 7.4 °F 1002.9 in SSE 3.4 mph 11.6 mph 97 % 0.0 in
13:03 8.2 °F 7.6 °F 1002.9 in SSE 5.5 mph 11.6 mph 96 % 0.0 in
13:08 8.4 °F 7.8 °F 1002.9 in SSE 6.4 mph 10.1 mph 96 % 0.0 in
13:13 8.4 °F 7.8 °F 1002.9 in ESE 6.9 mph 10.5 mph 96 % 0.0 in
13:18 8.4 °F 7.8 °F 1002.9 in ESE 7.1 mph 12.2 mph 96 % 0.0 in
13:23 8.3 °F 7.6 °F 1002.9 in ESE 8.5 mph 16.3 mph 95 % 0.0 in
13:28 8.3 °F 7.6 °F 1002.9 in ESE 10.0 mph 17.7 mph 95 % 0.0 in
13:33 8.2 °F 7.3 °F 1002.9 in ESE 9.7 mph 17.7 mph 94 % 0.0 in
13:38 8.2 °F 7.1 °F 1002.9 in East 9.0 mph 15.8 mph 93 % 0.0 in
13:43 8.3 °F 6.9 °F 1003.9 in ENE 9.3 mph 14.0 mph 91 % 0.0 in
13:48 8.4 °F 6.7 °F 1003.9 in ENE 10.3 mph 14.0 mph 89 % 0.0 in
13:53 8.4 °F 6.3 °F 1003.9 in ENE 9.5 mph 14.3 mph 87 % 0.0 in
13:58 8.5 °F 6.3 °F 1003.9 in East 8.8 mph 14.3 mph 86 % 0.0 in
14:03 8.6 °F 6.2 °F 1003.9 in East 8.4 mph 13.7 mph 85 % 0.0 in
14:08 8.5 °F 5.6 °F 1003.9 in East 9.0 mph 14.0 mph 82 % 0.0 in
14:14 8.4 °F 5.2 °F 1003.9 in East 10.3 mph 20.1 mph 80 % 0.0 in
14:19 8.3 °F 4.7 °F 1003.9 in East 8.8 mph 20.1 mph 78 % 0.0 in
14:24 8.2 °F 4.2 °F 1003.9 in East 6.9 mph 11.9 mph 76 % 0.0 in
14:29 8.1 °F 3.9 °F 1003.9 in NE 6.6 mph 11.9 mph 75 % 0.0 in
14:34 8.0 °F 3.4 °F 1003.9 in ENE 6.0 mph 8.7 mph 73 % 0.0 in
14:39 7.9 °F 3.3 °F 1003.9 in East 5.1 mph 7.9 mph 73 % 0.0 in
14:44 7.9 °F 3.2 °F 1005.0 in East 4.8 mph 10.1 mph 72 % 0.0 in
14:49 7.9 °F 2.9 °F 1005.0 in ENE 5.5 mph 10.5 mph 71 % 0.0 in
14:54 7.8 °F 2.7 °F 1005.0 in ENE 5.5 mph 10.5 mph 70 % 0.0 in
14:59 7.8 °F 2.4 °F 1005.0 in ENE 5.1 mph 7.9 mph 69 % 0.0 in
15:04 7.6 °F 2.1 °F 1005.0 in ENE 4.8 mph 7.9 mph 68 % 0.0 in
15:09 7.5 °F 1.8 °F 1005.0 in ENE 4.7 mph 9.3 mph 67 % 0.0 in
15:14 7.4 °F 1.7 °F 1005.0 in ENE 4.8 mph 9.7 mph 67 % 0.0 in
15:19 7.4 °F 1.4 °F 1005.0 in ENE 6.3 mph 14.0 mph 66 % 0.0 in
15:24 7.4 °F 1.1 °F 1005.0 in ENE 9.2 mph 21.9 mph 64 % 0.0 in
15:29 7.4 °F 0.8 °F 1006.0 in ENE 9.5 mph 21.9 mph 63 % 0.0 in
15:34 7.3 °F 0.3 °F 1006.0 in East 8.5 mph 13.7 mph 61 % 0.0 in
15:39 7.2 °F -0.1 °F 1006.0 in ENE 8.7 mph 14.3 mph 60 % 0.0 in
15:44 7.2 °F -0.3 °F 1007.0 in ENE 9.2 mph 14.3 mph 59 % 0.0 in
15:49 7.1 °F -0.6 °F 1007.0 in East 7.9 mph 13.0 mph 58 % 0.0 in
15:54 6.9 °F -0.8 °F 1007.0 in East 6.6 mph 13.0 mph 58 % 0.0 in
15:59 6.8 °F -0.9 °F 1006.0 in ENE 5.1 mph 8.7 mph 58 % 0.0 in
16:04 6.6 °F -1.3 °F 1006.0 in ENE 4.5 mph 10.5 mph 57 % 0.0 in
16:09 6.5 °F -1.4 °F 1006.0 in ENE 4.0 mph 10.5 mph 57 % 0.0 in
16:14 6.3 °F -1.6 °F 1007.0 in NE 4.0 mph 9.0 mph 57 % 0.0 in
16:19 6.1 °F -1.8 °F 1007.0 in NE 5.3 mph 9.0 mph 57 % 0.0 in
16:24 5.9 °F -1.7 °F 1007.0 in ENE 5.0 mph 8.7 mph 58 % 0.0 in
16:29 5.8 °F -1.8 °F 1008.0 in ENE 4.3 mph 5.8 mph 58 % 0.0 in
16:34 5.8 °F -1.8 °F 1008.0 in ENE 4.7 mph 6.9 mph 58 % 0.0 in
16:39 5.7 °F -1.7 °F 1008.0 in ENE 3.4 mph 6.9 mph 59 % 0.0 in
16:44 5.4 °F -2.0 °F 1008.0 in ENE 2.1 mph 6.9 mph 59 % 0.0 in
16:49 5.1 °F -2.1 °F 1008.0 in ENE 2.3 mph 4.3 mph 60 % 0.0 in
16:54 4.9 °F -2.0 °F 1008.0 in NNE 1.6 mph 4.0 mph 61 % 0.0 in
16:59 4.6 °F -2.3 °F 1008.0 in NW 2.1 mph 4.3 mph 61 % 0.0 in
17:04 4.4 °F -2.3 °F 1008.0 in NW 3.1 mph 5.0 mph 62 % 0.0 in
17:09 4.1 °F -2.3 °F 1008.0 in NW 3.5 mph 6.9 mph 63 % 0.0 in
17:14 3.8 °F -2.6 °F 1009.0 in NNW 3.5 mph 6.9 mph 63 % 0.0 in
17:19 3.6 °F -2.6 °F 1009.0 in NNW 2.9 mph 6.4 mph 64 % 0.0 in
17:24 3.4 °F -2.6 °F 1009.0 in WNW 2.3 mph 5.8 mph 65 % 0.0 in
17:29 3.1 °F -2.7 °F 1009.0 in West 1.6 mph 4.3 mph 66 % 0.0 in
17:34 3.0 °F -2.7 °F 1009.0 in NW 1.4 mph 4.0 mph 66 % 0.0 in
17:39 2.8 °F -2.7 °F 1009.0 in WSW 2.7 mph 5.8 mph 67 % 0.0 in
17:44 2.6 °F -2.7 °F 1008.0 in WSW 3.5 mph 5.8 mph 68 % 0.0 in
17:49 2.3 °F -3.0 °F 1008.0 in WNW 2.6 mph 5.0 mph 68 % 0.0 in
17:54 2.1 °F -3.2 °F 1008.0 in NW 2.4 mph 4.3 mph 68 % 0.0 in
17:59 1.9 °F -3.2 °F 1009.0 in NW 1.9 mph 4.3 mph 69 % 0.0 in
18:04 1.7 °F -3.2 °F 1009.0 in NNW 1.1 mph 5.0 mph 70 % 0.0 in
18:09 1.6 °F -3.3 °F 1009.0 in West 1.0 mph 5.0 mph 70 % 0.0 in
18:14 1.4 °F -3.5 °F 1010.0 in SW 0.6 mph 4.3 mph 70 % 0.0 in
18:19 1.3 °F -3.4 °F 1010.0 in South 0.5 mph 4.3 mph 71 % 0.0 in
18:24 1.2 °F -3.5 °F 1010.0 in WSW 0.6 mph 4.3 mph 71 % 0.0 in
18:29 1.0 °F -3.5 °F 1011.1 in WSW 1.4 mph 4.3 mph 72 % 0.0 in
18:34 0.9 °F -3.6 °F 1011.1 in WSW 1.0 mph 4.3 mph 72 % 0.0 in
18:39 0.7 °F -3.6 °F 1011.1 in Calm     73 % 0.0 in
18:44 0.7 °F -3.6 °F 1011.1 in Calm     73 % 0.0 in
18:49 0.5 °F -3.8 °F 1011.1 in Calm   5.0 mph 73 % 0.0 in
18:54 0.4 °F -3.7 °F 1011.1 in WNW 1.1 mph 5.0 mph 74 % 0.0 in
18:59 0.4 °F -3.7 °F 1012.1 in West 1.8 mph 4.0 mph 74 % 0.0 in
19:04 0.3 °F -3.8 °F 1012.1 in NW 1.1 mph 4.0 mph 74 % 0.0 in
19:09 0.2 °F -3.7 °F 1012.1 in NNW 1.1 mph 4.0 mph 75 % 0.0 in
19:14 0.1 °F -3.8 °F 1010.0 in NW 0.6 mph 4.0 mph 75 % 0.0 in
19:19 0.0 °F -3.9 °F 1010.0 in NW 1.1 mph 4.7 mph 75 % 0.0 in
19:24 0.0 °F -3.9 °F 1010.0 in NW 1.1 mph 4.7 mph 75 % 0.0 in
19:29 -0.2 °F -3.9 °F 1011.1 in WNW 0.8 mph 3.2 mph 76 % 0.0 in
19:34 -0.3 °F -4.0 °F 1011.1 in WNW 0.6 mph 3.2 mph 76 % 0.0 in
19:39 -0.3 °F -4.0 °F 1011.1 in Calm     76 % 0.0 in
19:44 -0.3 °F -4.0 °F 1012.1 in Calm     76 % 0.0 in
19:49 -0.3 °F -3.8 °F 1012.1 in North 0.2 mph 1.8 mph 77 % 0.0 in
19:54 -0.3 °F -3.8 °F 1012.1 in West 0.3 mph 2.1 mph 77 % 0.0 in
19:59 -0.3 °F -3.8 °F 1012.1 in WSW 0.5 mph 2.6 mph 77 % 0.0 in
20:04 -0.3 °F -3.7 °F 1012.1 in SW 0.3 mph 2.6 mph 78 % 0.0 in
20:09 -0.2 °F -3.6 °F 1012.1 in NW 0.6 mph 4.3 mph 78 % 0.0 in
20:14 -0.2 °F -3.6 °F 1013.1 in NW 0.6 mph 4.3 mph 78 % 0.0 in
20:19 -0.1 °F -3.3 °F 1013.1 in Calm   1.4 mph 79 % 0.0 in
20:24 0.0 °F -3.2 °F 1013.1 in Calm     79 % 0.0 in
20:29 0.0 °F -3.2 °F 1013.1 in Calm     79 % 0.0 in
20:34 0.1 °F -3.1 °F 1013.1 in Calm     79 % 0.0 in
20:39 0.1 °F -2.9 °F 1013.1 in Calm     80 % 0.0 in
20:44 0.1 °F -2.9 °F 1013.1 in West 0.8 mph 5.8 mph 80 % 0.0 in
20:49 0.1 °F -2.9 °F 1013.1 in WNW 1.4 mph 5.8 mph 80 % 0.0 in
20:54 0.2 °F -2.7 °F 1013.1 in North 0.8 mph 4.0 mph 81 % 0.0 in
20:59 0.3 °F -2.6 °F 1013.1 in ENE 0.8 mph 4.7 mph 81 % 0.0 in
21:04 0.6 °F -2.1 °F 1013.1 in ENE 3.1 mph 9.3 mph 82 % 0.0 in
21:09 0.7 °F -2.0 °F 1013.1 in East 4.3 mph 9.3 mph 82 % 0.0 in
21:19 1.0 °F -1.7 °F 1013.1 in ESE 2.1 mph 6.9 mph 82 % 0.0 in
21:24 1.1 °F -1.4 °F 1013.1 in SE 3.7 mph 6.9 mph 83 % 0.0 in
21:29 1.2 °F -1.4 °F 1013.1 in SE 4.5 mph 7.9 mph 83 % 0.0 in
21:34 1.2 °F -1.4 °F 1013.1 in SE 5.0 mph 7.9 mph 83 % 0.0 in
21:39 1.1 °F -1.4 °F 1013.1 in SE 4.3 mph 6.9 mph 83 % 0.0 in
21:44 1.1 °F -1.4 °F 1014.1 in SE 3.1 mph 6.1 mph 83 % 0.0 in
21:49 0.9 °F -1.5 °F 1014.1 in SE 1.4 mph 4.0 mph 84 % 0.0 in
22:04 0.3 °F -2.2 °F 1014.1 in NW 1.4 mph 5.8 mph 83 % 0.0 in
22:09 0.1 °F -2.4 °F 1014.1 in NW 0.6 mph 2.6 mph 83 % 0.0 in
22:14 -0.1 °F -2.7 °F 1015.1 in Calm   2.6 mph 83 % 0.0 in
22:19 -0.3 °F -2.8 °F 1015.1 in NNW 0.8 mph 4.0 mph 83 % 0.0 in
22:24 -0.4 °F -2.9 °F 1015.1 in NW 1.1 mph 5.8 mph 83 % 0.0 in
22:34 -0.6 °F -3.1 °F 1016.1 in WNW 3.7 mph 6.4 mph 83 % 0.0 in
22:39 -0.7 °F -3.2 °F 1016.1 in WNW 2.3 mph 6.4 mph 83 % 0.0 in
22:44 -0.7 °F -3.2 °F 1014.1 in SSW 0.2 mph 4.0 mph 83 % 0.0 in
22:54 -0.7 °F -3.2 °F 1014.1 in SW 0.8 mph 4.0 mph 83 % 0.0 in
22:59 -0.7 °F -3.2 °F 1015.1 in SW 0.5 mph 3.2 mph 83 % 0.0 in
23:04 -0.7 °F -3.1 °F 1015.1 in NNW 1.0 mph 4.0 mph 84 % 0.0 in
23:14 -0.7 °F -3.1 °F 1015.1 in NNW 0.2 mph 2.1 mph 84 % 0.0 in
23:19 -0.6 °F -2.9 °F 1015.1 in Calm     84 % 0.0 in
23:24 -0.5 °F -2.9 °F 1015.1 in Calm     84 % 0.0 in
23:29 -0.5 °F -2.9 °F 1016.1 in Calm     84 % 0.0 in
23:34 -0.5 °F -2.7 °F 1016.1 in Calm     85 % 0.0 in
23:39 -0.5 °F -2.7 °F 1016.1 in Calm     85 % 0.0 in
23:44 -0.4 °F -2.6 °F 1016.1 in Calm     85 % 0.0 in
23:49 -0.4 °F -2.6 °F 1016.1 in Calm     85 % 0.0 in
23:54 -0.3 °F -2.5 °F 1016.1 in Calm     85 % 0.0 in
23:59 -0.3 °F -2.3 °F 1016.1 in Calm     86 % 0.0 in
Vremenska postaja Senovo
Podatki zbrani iz Weather Underground - 2.75 mb

Script developed by  Jim McMurry - jmcmurry@mwt.net Adapted for the template by  Wim van der Kuil - Leuven-Template.eu

Vremenski podatki so objavljeni na:

European Weather Network

WeatherCloud

Weather Underground

AWEKAS

HAMweather, WeatherForYou, PWS Weather

MapView

Geostik

Slovenia weather network

Oprema, ki se uporablja:

Vremenski program
Cumulus

Vremenski server
Asus

Cumulus

Asus